createdAt,value
2022-08-25T00:01:20.511Z,24.83
2022-08-25T00:03:48.253Z,24.78
2022-08-25T00:06:16.226Z,24.76
2022-08-25T00:08:43.582Z,24.73
2022-08-25T00:11:15.648Z,24.70
2022-08-25T00:13:44.039Z,24.67
2022-08-25T00:16:17.064Z,24.63
2022-08-25T00:18:45.835Z,24.60
2022-08-25T00:21:14.240Z,24.55
2022-08-25T00:23:41.466Z,24.53
2022-08-25T00:26:08.927Z,24.50
2022-08-25T00:28:36.699Z,24.47
2022-08-25T00:31:04.516Z,24.43
2022-08-25T00:33:31.892Z,24.39
2022-08-25T00:36:00.308Z,24.37
2022-08-25T00:38:27.564Z,24.34
2022-08-25T00:41:06.604Z,24.31
2022-08-25T00:44:02.151Z,24.28
2022-08-25T00:46:35.224Z,24.26
2022-08-25T00:49:05.263Z,24.25
2022-08-25T00:51:51.528Z,24.25
2022-08-25T00:54:27.842Z,24.24
2022-08-25T00:56:56.832Z,24.23
2022-08-25T00:59:23.951Z,24.22
2022-08-25T01:01:51.486Z,24.23
2022-08-25T01:04:18.776Z,24.25
2022-08-25T01:06:45.770Z,24.26
2022-08-25T01:09:14.474Z,24.28
2022-08-25T01:11:42.712Z,24.31
2022-08-25T01:14:09.655Z,24.33
2022-08-25T01:16:37.527Z,24.37
2022-08-25T01:19:04.885Z,24.40
2022-08-25T01:21:33.157Z,24.43
2022-08-25T01:24:01.280Z,24.45
2022-08-25T01:26:31.195Z,24.46
2022-08-25T01:29:17.879Z,24.49
2022-08-25T01:31:45.375Z,24.51
2022-08-25T01:34:12.906Z,24.53
2022-08-25T01:36:41.023Z,24.55
2022-08-25T01:39:08.041Z,24.56
2022-08-25T01:41:34.998Z,24.58
2022-08-25T01:44:03.219Z,24.58
2022-08-25T01:46:30.153Z,24.59
2022-08-25T01:48:57.273Z,24.59
2022-08-25T01:51:25.763Z,24.59
2022-08-25T01:53:53.080Z,24.59
2022-08-25T01:56:19.973Z,24.59
2022-08-25T01:58:48.149Z,24.58
2022-08-25T02:01:20.291Z,24.57
2022-08-25T02:03:48.858Z,24.57
2022-08-25T02:06:18.283Z,24.57
2022-08-25T02:08:45.580Z,24.57
2022-08-25T02:11:13.379Z,24.58
2022-08-25T02:13:41.530Z,24.58
2022-08-25T02:16:10.120Z,24.59
2022-08-25T02:18:37.785Z,24.60
2022-08-25T02:21:04.840Z,24.61
2022-08-25T02:23:31.893Z,24.62
2022-08-25T02:25:58.844Z,24.63
2022-08-25T02:28:26.000Z,24.65
2022-08-25T02:31:00.143Z,24.67
2022-08-25T02:33:29.320Z,24.68
2022-08-25T02:36:02.844Z,24.69
2022-08-25T02:38:29.906Z,24.65
2022-08-25T02:40:58.625Z,24.62
2022-08-25T02:43:26.333Z,24.62
2022-08-25T02:45:53.933Z,24.63
2022-08-25T02:48:21.867Z,24.64
2022-08-25T02:50:50.182Z,24.63
2022-08-25T02:53:17.913Z,24.63
2022-08-25T02:55:45.380Z,24.63
2022-08-25T02:58:12.328Z,24.61
2022-08-25T03:00:39.383Z,24.62
2022-08-25T03:03:07.052Z,24.61
2022-08-25T03:05:34.616Z,24.60
2022-08-25T03:08:02.119Z,24.59
2022-08-25T03:10:29.228Z,24.59
2022-08-25T03:12:56.212Z,24.59
2022-08-25T03:15:25.890Z,24.59
2022-08-25T03:17:54.272Z,24.59
2022-08-25T03:20:22.547Z,24.59
2022-08-25T03:22:49.915Z,24.62
2022-08-25T03:25:35.507Z,24.61
2022-08-25T03:28:03.076Z,24.58
2022-08-25T03:30:30.559Z,24.59
2022-08-25T03:32:58.297Z,24.59
2022-08-25T03:35:25.252Z,24.59
2022-08-25T03:37:56.907Z,24.59
2022-08-25T03:40:24.042Z,24.58
2022-08-25T03:42:52.033Z,24.58
2022-08-25T03:45:19.798Z,24.57
2022-08-25T03:47:48.182Z,24.58
2022-08-25T03:50:16.252Z,24.60
2022-08-25T03:52:43.199Z,24.61
2022-08-25T03:55:11.949Z,24.63
2022-08-25T03:57:40.224Z,24.64
2022-08-25T04:00:09.244Z,24.67
2022-08-25T04:02:36.376Z,24.69
2022-08-25T04:05:03.560Z,24.70
2022-08-25T04:07:30.915Z,24.72
2022-08-25T04:09:58.478Z,24.74
2022-08-25T04:12:26.142Z,24.75
2022-08-25T04:14:53.084Z,24.78
2022-08-25T04:17:20.134Z,24.81
2022-08-25T04:19:47.180Z,24.85
2022-08-25T04:22:14.237Z,24.89
2022-08-25T04:24:41.647Z,24.91
2022-08-25T04:27:09.100Z,24.94
2022-08-25T04:29:36.138Z,25.00
2022-08-25T04:32:03.727Z,25.03
2022-08-25T04:34:31.753Z,25.06
2022-08-25T04:37:03.279Z,25.09
2022-08-25T04:39:31.177Z,25.15
2022-08-25T04:42:00.945Z,25.20
2022-08-25T04:44:29.369Z,25.26
2022-08-25T04:46:56.415Z,25.34
2022-08-25T04:49:23.360Z,25.41
2022-08-25T04:51:50.305Z,25.47
2022-08-25T04:54:22.174Z,25.51
2022-08-25T04:56:54.002Z,25.57
2022-08-25T04:59:21.813Z,25.65
2022-08-25T05:01:49.713Z,25.72
2022-08-25T05:04:28.343Z,25.79
2022-08-25T05:06:57.026Z,25.89
2022-08-25T05:09:25.247Z,25.97
2022-08-25T05:11:55.601Z,26.04
2022-08-25T05:14:26.302Z,26.09
2022-08-25T05:16:55.065Z,26.15
2022-08-25T05:19:24.289Z,26.21
2022-08-25T05:21:52.110Z,26.28
2022-08-25T05:24:19.955Z,26.37
2022-08-25T05:26:47.003Z,26.42
2022-08-25T05:29:15.826Z,26.46
2022-08-25T05:31:49.537Z,26.51
2022-08-25T05:34:19.190Z,26.62
2022-08-25T05:36:46.868Z,26.74
2022-08-25T05:39:13.914Z,26.82
2022-08-25T05:41:41.551Z,26.91
2022-08-25T05:44:09.956Z,27.01
2022-08-25T05:46:37.767Z,27.08
2022-08-25T05:49:04.967Z,27.16
2022-08-25T05:51:31.918Z,27.26
2022-08-25T05:53:58.860Z,27.36
2022-08-25T05:56:26.190Z,27.44
2022-08-25T05:58:54.184Z,27.56
2022-08-25T06:01:49.438Z,27.67
2022-08-25T06:04:18.227Z,27.78
2022-08-25T06:06:45.333Z,27.93
2022-08-25T06:09:12.798Z,28.09
2022-08-25T06:11:40.280Z,28.22
2022-08-25T06:14:10.567Z,28.33
2022-08-25T06:16:39.174Z,28.47
2022-08-25T06:19:11.317Z,28.60
2022-08-25T06:21:41.640Z,28.75
2022-08-25T06:24:15.246Z,28.90
2022-08-25T06:26:43.213Z,29.08
2022-08-25T06:29:10.578Z,29.24
2022-08-25T06:31:37.571Z,29.36
2022-08-25T06:34:04.677Z,29.49
2022-08-25T06:36:31.994Z,29.62
2022-08-25T06:38:58.985Z,29.75
2022-08-25T06:41:29.920Z,29.85
2022-08-25T06:44:05.774Z,29.97
2022-08-25T06:46:35.927Z,30.16
2022-08-25T06:49:08.305Z,30.32
2022-08-25T06:51:38.001Z,30.50
2022-08-25T06:54:06.395Z,30.70
2022-08-25T06:56:34.258Z,30.87
2022-08-25T06:59:05.500Z,31.06
2022-08-25T07:01:33.122Z,31.26
2022-08-25T07:04:01.654Z,31.48
2022-08-25T07:06:31.822Z,31.71
2022-08-25T07:08:59.031Z,31.92
2022-08-25T07:11:27.109Z,32.10
2022-08-25T07:13:54.362Z,32.32
2022-08-25T07:16:22.188Z,32.51
2022-08-25T07:18:50.917Z,32.67
2022-08-25T07:21:20.651Z,32.80
2022-08-25T07:23:52.833Z,32.81
2022-08-25T07:26:38.966Z,32.80
2022-08-25T07:29:09.690Z,32.87
2022-08-25T07:31:37.587Z,32.92
2022-08-25T07:34:23.707Z,33.04
2022-08-25T07:36:53.247Z,33.26
2022-08-25T07:39:21.996Z,33.42
2022-08-25T07:41:52.007Z,33.50
2022-08-25T07:44:20.097Z,33.57
2022-08-25T07:46:50.191Z,33.68
2022-08-25T07:49:23.548Z,33.77
2022-08-25T07:52:04.420Z,33.82
2022-08-25T07:54:35.212Z,33.89
2022-08-25T07:57:04.137Z,34.02
2022-08-25T07:59:39.206Z,34.16
2022-08-25T08:02:09.070Z,34.29
2022-08-25T08:04:48.905Z,34.41
2022-08-25T08:07:18.653Z,34.57
2022-08-25T08:09:48.697Z,34.74
2022-08-25T08:12:19.401Z,34.84
2022-08-25T08:14:47.063Z,35.00
2022-08-25T08:17:14.356Z,35.15
2022-08-25T08:19:45.337Z,35.29
2022-08-25T08:22:15.387Z,35.44
2022-08-25T08:24:54.571Z,35.67
2022-08-25T08:27:24.336Z,35.77
2022-08-25T08:29:52.799Z,35.73
2022-08-25T08:32:20.380Z,35.73
2022-08-25T08:34:52.551Z,35.78
2022-08-25T08:37:20.317Z,35.99
2022-08-25T08:39:51.563Z,36.34
2022-08-25T08:43:05.579Z,36.51
2022-08-25T08:45:53.121Z,36.61
2022-08-25T08:48:27.061Z,36.76
2022-08-25T08:51:33.580Z,36.93
2022-08-25T08:54:05.447Z,37.00
2022-08-25T08:56:47.992Z,37.02
2022-08-25T08:59:21.659Z,37.24
2022-08-25T09:01:54.187Z,37.48
2022-08-25T09:04:28.097Z,37.60
2022-08-25T09:06:55.671Z,37.71
2022-08-25T09:09:35.804Z,37.89
2022-08-25T09:12:13.219Z,38.10
2022-08-25T09:15:12.750Z,38.37
2022-08-25T09:17:59.651Z,38.57
2022-08-25T09:20:49.024Z,38.56
2022-08-25T09:23:40.137Z,38.56
2022-08-25T09:26:31.382Z,38.51
2022-08-25T09:29:21.447Z,38.65
2022-08-25T09:31:48.741Z,38.92
2022-08-25T09:34:20.667Z,39.00
2022-08-25T09:36:51.199Z,38.94
2022-08-25T09:39:20.023Z,38.93
2022-08-25T09:42:09.258Z,39.01
2022-08-25T09:44:44.023Z,39.08
2022-08-25T09:47:24.194Z,39.06
2022-08-25T09:50:01.644Z,39.04
2022-08-25T09:52:37.953Z,38.93
2022-08-25T09:55:05.260Z,38.88
2022-08-25T09:57:33.766Z,38.97
2022-08-25T10:00:18.867Z,39.05
2022-08-25T10:03:01.042Z,39.31
2022-08-25T10:05:35.566Z,39.68
2022-08-25T10:08:10.584Z,39.89
2022-08-25T10:10:45.392Z,40.09
2022-08-25T10:13:22.909Z,40.28
2022-08-25T10:16:20.038Z,40.36
2022-08-25T10:19:10.326Z,40.39
2022-08-25T10:21:39.446Z,40.37
2022-08-25T10:24:07.775Z,40.30
2022-08-25T10:26:45.194Z,40.33
2022-08-25T10:29:19.509Z,40.47
2022-08-25T10:31:57.097Z,40.55
2022-08-25T10:34:51.444Z,40.52
2022-08-25T10:37:28.567Z,40.68
2022-08-25T10:40:03.133Z,40.97
2022-08-25T10:43:03.493Z,41.09
2022-08-25T10:45:43.539Z,41.20
2022-08-25T10:48:13.810Z,41.35
2022-08-25T10:50:45.499Z,41.47
2022-08-25T10:53:37.098Z,41.38
2022-08-25T10:56:21.281Z,41.38
2022-08-25T10:59:07.656Z,41.40
2022-08-25T11:01:53.642Z,41.53
2022-08-25T11:04:30.324Z,41.57
2022-08-25T11:07:49.087Z,41.48
2022-08-25T11:10:27.974Z,41.41
2022-08-25T11:12:57.925Z,41.47
2022-08-25T11:15:26.212Z,41.59
2022-08-25T11:18:05.610Z,41.71
2022-08-25T11:21:22.776Z,41.80
2022-08-25T11:23:57.301Z,41.96
2022-08-25T11:26:31.940Z,42.10
2022-08-25T11:29:19.555Z,42.11
2022-08-25T11:31:53.035Z,42.12
2022-08-25T11:34:21.051Z,42.25
2022-08-25T11:37:01.367Z,42.35
2022-08-25T11:39:35.295Z,42.24
2022-08-25T11:42:23.781Z,42.10
2022-08-25T11:44:53.644Z,41.99
2022-08-25T11:47:33.407Z,42.04
2022-08-25T11:50:08.273Z,42.14
2022-08-25T11:52:38.154Z,42.16
2022-08-25T11:55:11.552Z,41.98
2022-08-25T11:57:39.112Z,41.91
2022-08-25T12:00:18.040Z,41.99
2022-08-25T12:02:50.674Z,42.10
2022-08-25T12:05:17.547Z,42.13
2022-08-25T12:07:48.296Z,42.12
2022-08-25T12:10:22.607Z,42.08
2022-08-25T12:12:57.774Z,42.01
2022-08-25T12:15:29.262Z,41.80
2022-08-25T12:18:09.029Z,41.67
2022-08-25T12:21:00.091Z,41.57
2022-08-25T12:23:34.989Z,41.55
2022-08-25T12:26:10.978Z,41.60
2022-08-25T12:28:48.734Z,41.67
2022-08-25T12:31:20.952Z,41.74
2022-08-25T12:34:37.934Z,41.85
2022-08-25T12:37:19.207Z,41.85
2022-08-25T12:39:50.962Z,41.90
2022-08-25T12:42:26.173Z,41.93
2022-08-25T12:45:36.201Z,41.93
2022-08-25T12:48:26.742Z,41.87
2022-08-25T12:51:06.741Z,41.65
2022-08-25T12:53:41.109Z,41.54
2022-08-25T12:56:16.764Z,41.31
2022-08-25T12:59:04.076Z,41.23
2022-08-25T13:01:43.625Z,41.27
2022-08-25T13:04:24.422Z,41.32
2022-08-25T13:07:35.911Z,41.38
2022-08-25T13:10:17.062Z,41.42
2022-08-25T13:13:28.962Z,41.42
2022-08-25T13:16:10.254Z,41.37
2022-08-25T13:18:39.799Z,41.31
2022-08-25T13:21:19.808Z,41.24
2022-08-25T13:23:49.621Z,41.20
2022-08-25T13:26:26.706Z,41.15
2022-08-25T13:29:05.147Z,41.11
2022-08-25T13:31:35.495Z,41.03
2022-08-25T13:34:05.366Z,40.95
2022-08-25T13:37:02.936Z,40.89
2022-08-25T13:39:54.948Z,40.80
2022-08-25T13:42:20.586Z,40.68
2022-08-25T13:44:55.042Z,40.60
2022-08-25T13:47:45.611Z,40.49
2022-08-25T13:50:34.415Z,40.38
2022-08-25T13:53:24.564Z,40.29
2022-08-25T13:55:53.410Z,40.21
2022-08-25T13:58:38.989Z,40.15
2022-08-25T14:01:48.529Z,40.08
2022-08-25T14:04:50.844Z,40.01
2022-08-25T14:07:19.496Z,39.93
2022-08-25T14:09:50.292Z,39.85
2022-08-25T14:12:32.300Z,39.78
2022-08-25T14:15:10.712Z,39.69
2022-08-25T14:17:40.196Z,39.60
2022-08-25T14:20:20.691Z,39.47
2022-08-25T14:22:51.161Z,39.35
2022-08-25T14:25:18.469Z,39.24
2022-08-25T14:30:35.196Z,39.01
2022-08-25T14:33:02.866Z,38.89
2022-08-25T14:35:30.013Z,38.77
2022-08-25T14:37:58.528Z,38.68
2022-08-25T14:40:25.759Z,38.54
2022-08-25T14:42:53.321Z,38.43
2022-08-25T14:45:20.979Z,38.35
2022-08-25T14:47:50.006Z,38.22
2022-08-25T14:50:24.280Z,38.14
2022-08-25T14:52:52.281Z,38.05
2022-08-25T14:55:31.134Z,37.97
2022-08-25T14:58:00.102Z,37.88
2022-08-25T15:00:28.172Z,37.79
2022-08-25T15:02:55.734Z,37.69
2022-08-25T15:05:25.906Z,37.54
2022-08-25T15:08:12.670Z,37.43
2022-08-25T15:10:40.693Z,37.33
2022-08-25T15:13:07.795Z,37.21
2022-08-25T15:15:37.156Z,37.10
2022-08-25T15:18:04.218Z,36.97
2022-08-25T15:20:32.898Z,36.86
2022-08-25T15:23:00.804Z,36.76
2022-08-25T15:25:27.859Z,36.65
2022-08-25T15:27:55.516Z,36.55
2022-08-25T15:30:22.665Z,36.45
2022-08-25T15:32:58.113Z,36.35
2022-08-25T15:35:29.150Z,36.24
2022-08-25T15:37:56.817Z,36.10
2022-08-25T15:40:23.897Z,35.93
2022-08-25T15:42:51.629Z,35.78
2022-08-25T15:45:19.192Z,35.63
2022-08-25T15:47:46.662Z,35.48
2022-08-25T15:50:25.778Z,35.33
2022-08-25T15:52:53.662Z,35.20
2022-08-25T15:55:21.218Z,35.10
2022-08-25T15:57:49.694Z,34.99
2022-08-25T16:00:17.882Z,34.84
2022-08-25T16:02:46.286Z,34.72
2022-08-25T16:05:13.869Z,34.61
2022-08-25T16:07:46.167Z,34.51
2022-08-25T16:10:18.882Z,34.41
2022-08-25T16:12:46.823Z,34.30
2022-08-25T16:15:14.725Z,34.23
2022-08-25T16:17:43.714Z,34.12
2022-08-25T16:20:13.786Z,34.03
2022-08-25T16:22:41.480Z,33.91
2022-08-25T16:25:09.002Z,33.80
2022-08-25T16:27:38.850Z,33.71
2022-08-25T16:30:13.761Z,33.60
2022-08-25T16:32:43.426Z,33.51
2022-08-25T16:35:11.324Z,33.42
2022-08-25T16:37:39.268Z,33.33
2022-08-25T16:40:08.153Z,33.23
2022-08-25T16:42:35.924Z,33.13
2022-08-25T16:45:03.076Z,33.03
2022-08-25T16:47:37.605Z,32.94
2022-08-25T16:50:06.841Z,32.84
2022-08-25T16:52:53.018Z,32.73
2022-08-25T16:55:20.758Z,32.59
2022-08-25T16:57:54.478Z,32.47
2022-08-25T17:00:26.987Z,32.37
2022-08-25T17:02:56.437Z,32.25
2022-08-25T17:05:24.035Z,32.12
2022-08-25T17:08:09.989Z,32.00
2022-08-25T17:10:39.082Z,31.88
2022-08-25T17:13:06.952Z,31.78
2022-08-25T17:15:34.525Z,31.70
2022-08-25T17:18:02.372Z,31.61
2022-08-25T17:20:31.401Z,31.52
2022-08-25T17:22:58.716Z,31.47
2022-08-25T17:25:27.478Z,31.36
2022-08-25T17:27:55.164Z,31.24
2022-08-25T17:30:23.001Z,31.15
2022-08-25T17:32:53.048Z,31.05
2022-08-25T17:35:20.094Z,30.94
2022-08-25T17:37:49.943Z,30.83
2022-08-25T17:40:17.798Z,30.73
2022-08-25T17:42:45.028Z,30.61
2022-08-25T17:45:12.689Z,30.50
2022-08-25T17:47:40.916Z,30.39
2022-08-25T17:50:09.582Z,30.29
2022-08-25T17:52:36.554Z,30.21
2022-08-25T17:55:04.153Z,30.13
2022-08-25T17:57:35.604Z,30.04
2022-08-25T18:00:12.734Z,29.95
2022-08-25T18:02:40.758Z,29.88
2022-08-25T18:05:07.843Z,29.81
2022-08-25T18:07:36.926Z,29.74
2022-08-25T18:10:05.048Z,29.68
2022-08-25T18:12:32.016Z,29.62
2022-08-25T18:15:00.220Z,29.56
2022-08-25T18:17:27.949Z,29.50
2022-08-25T18:19:56.635Z,29.44
2022-08-25T18:22:23.885Z,29.40
2022-08-25T18:24:51.446Z,29.35
2022-08-25T18:27:18.494Z,29.30
2022-08-25T18:29:48.907Z,29.24
2022-08-25T18:32:16.241Z,29.19
2022-08-25T18:34:46.506Z,29.13
2022-08-25T18:37:32.203Z,29.07
2022-08-25T18:40:19.186Z,29.03
2022-08-25T18:42:46.405Z,28.98
2022-08-25T18:45:13.689Z,28.93
2022-08-25T18:47:41.091Z,28.89
2022-08-25T18:50:09.271Z,28.86
2022-08-25T18:52:36.219Z,28.83
2022-08-25T18:55:03.718Z,28.79
2022-08-25T18:57:32.167Z,28.74
2022-08-25T18:59:59.012Z,28.70
2022-08-25T19:02:27.890Z,28.66
2022-08-25T19:04:54.999Z,28.62
2022-08-25T19:07:21.943Z,28.59
2022-08-25T19:09:48.957Z,28.55
2022-08-25T19:12:22.292Z,28.52
2022-08-25T19:14:50.268Z,28.48
2022-08-25T19:17:19.080Z,28.43
2022-08-25T19:19:51.917Z,28.39
2022-08-25T19:22:40.337Z,28.35
2022-08-25T19:25:06.892Z,28.34
2022-08-25T19:27:34.856Z,28.30
2022-08-25T19:30:02.298Z,28.23
2022-08-25T19:32:29.378Z,28.20
2022-08-25T19:34:56.349Z,28.17
2022-08-25T19:37:25.435Z,28.15
2022-08-25T19:39:55.742Z,28.15
2022-08-25T19:42:35.245Z,28.18
2022-08-25T19:45:07.201Z,28.17
2022-08-25T19:47:34.241Z,28.15
2022-08-25T19:50:01.196Z,28.13
2022-08-25T19:52:28.920Z,28.11
2022-08-25T19:54:55.906Z,28.10
2022-08-25T19:57:28.460Z,28.09
2022-08-25T20:00:21.068Z,28.05
2022-08-25T20:02:49.019Z,28.04
2022-08-25T20:05:23.804Z,28.02
2022-08-25T20:07:52.352Z,27.97
2022-08-25T20:10:19.597Z,27.91
2022-08-25T20:12:46.542Z,27.88
2022-08-25T20:15:16.692Z,27.87
2022-08-25T20:17:44.025Z,27.83
2022-08-25T20:20:15.480Z,27.80
2022-08-25T20:22:42.634Z,27.78
2022-08-25T20:25:19.288Z,27.76
2022-08-25T20:27:49.628Z,27.74
2022-08-25T20:30:24.601Z,27.73
2022-08-25T20:32:51.908Z,27.72
2022-08-25T20:35:19.092Z,27.71
2022-08-25T20:37:46.245Z,27.70
2022-08-25T20:40:14.482Z,27.70
2022-08-25T20:42:43.408Z,27.68
2022-08-25T20:45:13.058Z,27.67
2022-08-25T20:47:40.102Z,27.66
2022-08-25T20:50:09.271Z,27.64
2022-08-25T20:52:42.366Z,27.62
2022-08-25T20:55:09.831Z,27.59
2022-08-25T20:57:38.212Z,27.58
2022-08-25T21:00:07.783Z,27.57
2022-08-25T21:02:35.363Z,27.57
2022-08-25T21:05:02.965Z,27.54
2022-08-25T21:07:30.011Z,27.55
2022-08-25T21:09:58.400Z,27.53
2022-08-25T21:12:25.856Z,27.52
2022-08-25T21:14:53.966Z,27.48
2022-08-25T21:17:20.882Z,27.44
2022-08-25T21:22:16.519Z,27.40
2022-08-25T21:24:45.112Z,27.39
2022-08-25T21:27:12.058Z,27.36
2022-08-25T21:29:44.496Z,27.32
2022-08-25T21:32:11.998Z,27.29
2022-08-25T21:34:39.660Z,27.27
2022-08-25T21:37:07.355Z,27.24
2022-08-25T21:39:35.100Z,27.22
2022-08-25T21:42:03.759Z,27.20
2022-08-25T21:44:30.835Z,27.17
2022-08-25T21:46:57.790Z,27.13
2022-08-25T21:49:25.858Z,27.10
2022-08-25T21:52:00.806Z,27.08
2022-08-25T21:54:29.352Z,27.06
2022-08-25T21:56:59.952Z,27.04
2022-08-25T21:59:29.831Z,27.00
2022-08-25T22:01:57.986Z,26.97
2022-08-25T22:04:25.675Z,26.95
2022-08-25T22:06:52.730Z,26.93
2022-08-25T22:09:20.125Z,26.91
2022-08-25T22:11:48.290Z,26.88
2022-08-25T22:14:15.527Z,26.86
2022-08-25T22:16:43.354Z,26.83
2022-08-25T22:19:12.628Z,26.81
2022-08-25T22:21:41.949Z,26.79
2022-08-25T22:24:10.278Z,26.76
2022-08-25T22:26:38.593Z,26.75
2022-08-25T22:29:06.603Z,26.74
2022-08-25T22:31:35.043Z,26.73
2022-08-25T22:34:03.138Z,26.76
2022-08-25T22:36:33.107Z,26.75
2022-08-25T22:39:00.156Z,26.74
2022-08-25T22:41:28.229Z,26.74
2022-08-25T22:43:55.789Z,26.73
2022-08-25T22:46:23.481Z,26.71
2022-08-25T22:48:51.462Z,26.69
2022-08-25T22:51:20.923Z,26.67
2022-08-25T22:53:48.705Z,26.63
2022-08-25T22:56:17.457Z,26.60
2022-08-25T22:58:51.955Z,26.58
2022-08-25T23:01:20.003Z,26.54
2022-08-25T23:03:48.148Z,26.52
2022-08-25T23:06:20.792Z,26.53
2022-08-25T23:08:53.581Z,26.50
2022-08-25T23:11:21.438Z,26.47
2022-08-25T23:13:48.482Z,26.45
2022-08-25T23:16:16.152Z,26.44
2022-08-25T23:18:45.082Z,26.41
2022-08-25T23:21:35.140Z,26.39
2022-08-25T23:24:05.747Z,26.36
2022-08-25T23:26:33.975Z,26.33
2022-08-25T23:29:01.579Z,26.30
2022-08-25T23:31:34.929Z,26.27
2022-08-25T23:34:02.854Z,26.25
2022-08-25T23:36:30.111Z,26.23
2022-08-25T23:38:57.371Z,26.19
2022-08-25T23:41:25.435Z,26.15
2022-08-25T23:43:52.694Z,26.12
2022-08-25T23:46:22.145Z,26.10
2022-08-25T23:48:49.492Z,26.09
2022-08-25T23:51:24.496Z,26.09
2022-08-25T23:53:52.164Z,26.08
2022-08-25T23:56:19.321Z,26.07
2022-08-25T23:58:46.985Z,26.06
